Highest pressure

Not for real navigation. The accuracy of this data is not assured See disclaimer for more information



ICAO NAME COUNTRY WIND Kt GUST Kt VIS m TEMP/DEW C BARO METAR
SLLP La Paz / Alto Bolivia 3 0 9999 5/1 30.62 SLLP 192200Z 07003KT 9999 SCT017 FEW020CB BKN070 BKN200 05/01 Q1037
K0CO 5 0 9999 15/7 30.62 K0CO 192236Z AUTO 08005KT SCT090 15/07 A3062 RMK AO2 PWINO
KCPW Pagosa Springs, Wolf Creek Pas CO United States 12 22 9999 20/0 30.61 KCPW 192206Z AUTO 23012G22KT 10SM CAVOK 20/00 A3061 RMK AO2
KCCU Copper Mountain, Red Cliff Pas CO United States 8 0 9999 22/-5 30.58 KCCU 192212Z AUTO 19008KT 10SM CAVOK 22/M05 A3058 RMK AO2
LIMH Pian Rosa Italy 0 0 9999 2/1 30.53 LIMH 192155Z /////KT 9999 SCT000 02/01 Q1034 RMK SCT MON CLD SCT VAL CLD SCT VIS MIN 9999

Show more